createdAt,value
2022-10-16T00:00:59.335Z,48.42
2022-10-16T00:03:29.552Z,47.60
2022-10-16T00:06:01.578Z,46.40
2022-10-16T00:08:29.157Z,43.78
2022-10-16T00:11:10.112Z,43.65
2022-10-16T00:13:39.185Z,45.28
2022-10-16T00:16:08.583Z,50.08
2022-10-16T00:18:36.018Z,47.72
2022-10-16T00:21:12.408Z,51.47
2022-10-16T00:23:40.210Z,50.85
2022-10-16T00:26:10.310Z,47.58
2022-10-16T00:28:38.184Z,47.58
2022-10-16T00:31:10.271Z,43.85
2022-10-16T00:33:39.158Z,49.15
2022-10-16T00:36:07.178Z,41.67
2022-10-16T00:38:34.512Z,48.95
2022-10-16T00:41:01.588Z,45.05
2022-10-16T00:43:48.888Z,50.17
2022-10-16T00:46:23.851Z,47.42
2022-10-16T00:49:06.297Z,52.03
2022-10-16T00:51:38.919Z,45.67
2022-10-16T00:54:11.550Z,45.72
2022-10-16T00:56:38.845Z,47.53
2022-10-16T00:59:15.287Z,47.33
2022-10-16T01:01:42.398Z,47.78
2022-10-16T01:04:09.350Z,45.80
2022-10-16T01:06:41.495Z,46.80
2022-10-16T01:09:19.130Z,48.65
2022-10-16T01:12:10.922Z,45.90
2022-10-16T01:14:59.908Z,47.35
2022-10-16T01:17:48.825Z,46.70
2022-10-16T01:20:27.511Z,52.30
2022-10-16T01:23:06.736Z,52.10
2022-10-16T01:26:02.007Z,47.60
2022-10-16T01:28:40.750Z,55.63
2022-10-16T01:31:10.814Z,52.83
2022-10-16T01:33:48.077Z,53.90
2022-10-16T01:36:20.875Z,51.63
2022-10-16T01:38:52.678Z,51.50
2022-10-16T01:41:29.298Z,49.17
2022-10-16T01:44:21.800Z,50.15
2022-10-16T01:46:51.829Z,47.25
2022-10-16T01:49:20.925Z,52.80
2022-10-16T01:51:53.722Z,50.70
2022-10-16T01:54:21.806Z,54.95
2022-10-16T01:56:51.844Z,53.35
2022-10-16T01:59:22.614Z,60.50
2022-10-16T02:01:56.168Z,53.50
2022-10-16T02:04:29.447Z,55.10
2022-10-16T02:06:56.818Z,56.80
2022-10-16T02:09:23.794Z,53.35
2022-10-16T02:11:53.972Z,52.58
2022-10-16T02:14:23.202Z,57.75
2022-10-16T02:16:50.319Z,62.75
2022-10-16T02:19:21.233Z,53.75
2022-10-16T02:21:58.090Z,55.60
2022-10-16T02:25:07.842Z,53.58
2022-10-16T02:28:09.848Z,54.35
2022-10-16T02:30:45.954Z,58.08
2022-10-16T02:33:14.908Z,52.35
2022-10-16T02:35:44.178Z,58.08
2022-10-16T02:38:12.802Z,62.70
2022-10-16T02:40:40.200Z,55.83
2022-10-16T02:43:07.682Z,56.25
2022-10-16T02:45:34.652Z,52.38
2022-10-16T02:48:01.673Z,54.50
2022-10-16T02:50:28.685Z,57.47
2022-10-16T02:52:55.640Z,52.92
2022-10-16T02:55:22.791Z,52.65
2022-10-16T02:57:49.825Z,59.38
2022-10-16T03:00:18.597Z,52.42
2022-10-16T03:02:46.244Z,58.72
2022-10-16T03:05:13.345Z,50.97
2022-10-16T03:07:40.795Z,55.65
2022-10-16T03:10:08.741Z,47.30
2022-10-16T03:12:35.711Z,51.25
2022-10-16T03:15:02.700Z,53.85
2022-10-16T03:17:29.878Z,52.88
2022-10-16T03:19:56.910Z,57.80
2022-10-16T03:22:23.997Z,52.83
2022-10-16T03:24:50.971Z,50.17
2022-10-16T03:27:17.975Z,51.10
2022-10-16T03:29:44.911Z,56.03
2022-10-16T03:32:11.837Z,49.65
2022-10-16T03:34:38.799Z,53.28
2022-10-16T03:37:05.824Z,48.60
2022-10-16T03:39:32.790Z,47.63
2022-10-16T03:41:59.792Z,51.47
2022-10-16T03:44:26.821Z,47.83
2022-10-16T03:46:53.801Z,47.88
2022-10-16T03:49:20.746Z,55.25
2022-10-16T03:51:47.712Z,44.92
2022-10-16T03:54:14.763Z,51.58
2022-10-16T03:56:41.742Z,48.95
2022-10-16T03:59:08.739Z,48.53
2022-10-16T04:01:35.998Z,49.45
2022-10-16T04:04:02.898Z,43.38
2022-10-16T04:06:29.903Z,47.60
2022-10-16T04:08:57.510Z,39.40
2022-10-16T04:11:24.510Z,49.05
2022-10-16T04:13:51.535Z,50.72
2022-10-16T04:16:18.551Z,54.58
2022-10-16T04:18:45.502Z,45.60
2022-10-16T04:21:12.463Z,51.67
2022-10-16T04:23:39.419Z,49.30
2022-10-16T04:26:06.558Z,53.33
2022-10-16T04:28:33.538Z,52.80
2022-10-16T04:31:00.569Z,54.55
2022-10-16T04:33:27.598Z,55.67
2022-10-16T04:36:02.072Z,56.22
2022-10-16T04:38:29.681Z,60.63
2022-10-16T04:40:56.664Z,52.30
2022-10-16T04:43:23.773Z,51.85
2022-10-16T04:45:54.143Z,56.40
2022-10-16T04:48:21.175Z,57.95
2022-10-16T04:50:52.999Z,56.47
2022-10-16T04:53:23.034Z,51.97
2022-10-16T04:55:51.895Z,54.45
2022-10-16T04:58:18.905Z,52.97
2022-10-16T05:00:47.338Z,57.75
2022-10-16T05:03:14.845Z,48.30
2022-10-16T05:05:46.371Z,49.85
2022-10-16T05:08:17.466Z,51.75
2022-10-16T05:10:45.857Z,56.15
2022-10-16T05:13:13.532Z,46.60
2022-10-16T05:15:41.274Z,45.60
2022-10-16T05:18:09.416Z,45.83
2022-10-16T05:20:36.368Z,40.38
2022-10-16T05:23:03.456Z,44.33
2022-10-16T05:25:30.466Z,41.17
2022-10-16T05:27:57.492Z,45.25
2022-10-16T05:30:24.514Z,39.17
2022-10-16T05:32:52.479Z,34.80
2022-10-16T05:35:21.008Z,41.45
2022-10-16T05:37:48.557Z,43.03
2022-10-16T05:40:15.911Z,38.88
2022-10-16T05:42:42.975Z,32.83
2022-10-16T05:45:12.430Z,33.53
2022-10-16T05:47:39.870Z,38.35
2022-10-16T05:50:07.487Z,41.33
2022-10-16T05:52:34.457Z,33.47
2022-10-16T05:55:05.104Z,39.88
2022-10-16T05:57:32.328Z,38.13
2022-10-16T05:59:59.264Z,37.67
2022-10-16T06:02:26.379Z,44.00
2022-10-16T06:04:56.752Z,40.03
2022-10-16T06:07:24.883Z,45.80
2022-10-16T06:09:53.452Z,47.20
2022-10-16T06:12:21.488Z,46.47
2022-10-16T06:14:48.580Z,48.75
2022-10-16T06:17:16.581Z,45.75
2022-10-16T06:19:43.551Z,49.45
2022-10-16T06:22:10.683Z,45.95
2022-10-16T06:24:37.630Z,41.58
2022-10-16T06:27:06.310Z,40.25
2022-10-16T06:29:33.469Z,45.25
2022-10-16T06:32:00.632Z,40.63
2022-10-16T06:34:27.584Z,40.58
2022-10-16T06:36:54.622Z,43.15
2022-10-16T06:39:21.784Z,45.60
2022-10-16T06:41:48.961Z,39.47
2022-10-16T06:44:16.048Z,42.05
2022-10-16T06:46:43.041Z,43.95
2022-10-16T06:49:09.987Z,40.47
2022-10-16T06:51:43.105Z,44.13
2022-10-16T06:54:10.588Z,46.90
2022-10-16T06:56:37.663Z,46.10
2022-10-16T06:59:05.122Z,48.83
2022-10-16T07:01:32.515Z,45.75
2022-10-16T07:03:59.974Z,49.50
2022-10-16T07:06:28.470Z,50.97
2022-10-16T07:08:55.467Z,45.95
2022-10-16T07:11:24.905Z,49.80
2022-10-16T07:13:55.065Z,59.22
2022-10-16T07:16:28.381Z,46.47
2022-10-16T07:19:00.310Z,54.67
2022-10-16T07:21:37.818Z,52.80
2022-10-16T07:24:07.716Z,49.75
2022-10-16T07:26:37.491Z,55.63
2022-10-16T07:29:06.477Z,63.92
2022-10-16T07:31:33.586Z,65.93
2022-10-16T07:34:01.629Z,69.20
2022-10-16T07:36:28.871Z,66.40
2022-10-16T07:38:58.811Z,61.10
2022-10-16T07:41:27.502Z,52.72
2022-10-16T07:43:55.670Z,53.92
2022-10-16T07:46:23.955Z,59.80
2022-10-16T07:48:50.947Z,65.40
2022-10-16T07:51:23.081Z,53.20
2022-10-16T07:53:50.802Z,52.85
2022-10-16T07:56:18.895Z,55.40
2022-10-16T07:58:46.676Z,58.85
2022-10-16T08:01:16.947Z,70.25
2022-10-16T08:03:45.500Z,58.78
2022-10-16T08:06:12.601Z,64.60
2022-10-16T08:08:39.572Z,63.72
2022-10-16T08:11:06.615Z,61.38
2022-10-16T08:13:33.933Z,56.97
2022-10-16T08:16:01.149Z,59.20
2022-10-16T08:18:28.863Z,60.30
2022-10-16T08:21:01.395Z,65.05
2022-10-16T08:23:29.948Z,55.45
2022-10-16T08:26:02.598Z,63.85
2022-10-16T08:28:29.698Z,61.95
2022-10-16T08:30:58.024Z,67.97
2022-10-16T08:33:25.177Z,64.45
2022-10-16T08:35:54.792Z,60.42
2022-10-16T08:38:22.363Z,59.63
2022-10-16T08:40:52.731Z,74.10
2022-10-16T08:43:26.103Z,60.78
2022-10-16T08:46:20.874Z,63.83
2022-10-16T08:48:53.476Z,57.92
2022-10-16T08:51:32.888Z,58.38
2022-10-16T08:54:06.928Z,64.35
2022-10-16T08:56:34.851Z,67.40
2022-10-16T08:59:03.062Z,62.08
2022-10-16T09:01:50.440Z,54.85
2022-10-16T09:04:35.846Z,55.23
2022-10-16T09:07:09.728Z,57.03
2022-10-16T09:09:39.778Z,56.50
2022-10-16T09:12:23.247Z,59.33
2022-10-16T09:15:12.947Z,60.43
2022-10-16T09:17:48.278Z,57.27
2022-10-16T09:20:23.939Z,66.77
2022-10-16T09:23:11.413Z,54.60
2022-10-16T09:25:42.166Z,59.85
2022-10-16T09:28:11.262Z,55.27
2022-10-16T09:30:40.908Z,58.67
2022-10-16T09:33:11.009Z,53.50
2022-10-16T09:35:46.500Z,52.23
2022-10-16T09:38:33.362Z,56.80
2022-10-16T09:41:21.329Z,58.43
2022-10-16T09:43:56.033Z,58.13
2022-10-16T09:46:28.052Z,56.30
2022-10-16T09:49:07.103Z,55.80
2022-10-16T09:51:36.981Z,54.20
2022-10-16T09:54:09.691Z,53.67
2022-10-16T09:56:40.342Z,55.70
2022-10-16T09:59:16.530Z,56.83
2022-10-16T10:01:47.538Z,54.70
2022-10-16T10:04:15.731Z,53.13
2022-10-16T10:06:51.852Z,60.20
2022-10-16T10:09:33.480Z,58.43
2022-10-16T10:12:05.488Z,62.07
2022-10-16T10:14:42.306Z,57.23
2022-10-16T10:17:28.450Z,59.83
2022-10-16T10:19:56.624Z,58.07
2022-10-16T10:22:47.078Z,60.33
2022-10-16T10:25:27.064Z,55.50
2022-10-16T10:28:23.054Z,58.97
2022-10-16T10:31:20.684Z,51.60
2022-10-16T10:34:00.175Z,53.23
2022-10-16T10:36:41.949Z,50.53
2022-10-16T10:39:43.224Z,52.40
2022-10-16T10:42:58.866Z,47.70
2022-10-16T10:45:49.385Z,47.83
2022-10-16T10:48:45.108Z,45.27
2022-10-16T10:51:31.429Z,42.70
2022-10-16T10:54:09.029Z,46.23
2022-10-16T10:56:45.291Z,44.00
2022-10-16T10:59:24.523Z,43.97
2022-10-16T11:02:01.410Z,43.20
2022-10-16T11:04:54.099Z,44.97
2022-10-16T11:07:53.440Z,43.03
2022-10-16T11:10:33.495Z,47.40
2022-10-16T11:13:25.902Z,41.40
2022-10-16T11:15:58.634Z,44.50
2022-10-16T11:19:20.460Z,47.60
2022-10-16T11:22:05.918Z,45.57
2022-10-16T11:25:13.784Z,46.57
2022-10-16T11:28:02.211Z,48.90
2022-10-16T11:30:32.606Z,46.87
2022-10-16T11:33:09.772Z,45.33
2022-10-16T11:35:45.909Z,40.10
2022-10-16T11:38:24.305Z,41.97
2022-10-16T11:40:56.113Z,44.30
2022-10-16T11:43:37.229Z,42.97
2022-10-16T11:46:20.865Z,40.27
2022-10-16T11:49:23.001Z,37.13
2022-10-16T11:52:15.348Z,41.20
2022-10-16T11:55:03.059Z,40.10
2022-10-16T11:57:36.080Z,39.23
2022-10-16T12:00:15.402Z,41.93
2022-10-16T12:02:53.537Z,38.17
2022-10-16T12:05:32.497Z,40.40
2022-10-16T12:08:17.234Z,35.43
2022-10-16T12:10:47.356Z,37.53
2022-10-16T12:13:38.086Z,37.30
2022-10-16T12:16:15.167Z,39.07
2022-10-16T12:18:46.930Z,39.50
2022-10-16T12:21:17.022Z,43.70
2022-10-16T12:23:56.113Z,39.40
2022-10-16T12:26:32.637Z,39.80
2022-10-16T12:29:33.279Z,40.20
2022-10-16T12:32:00.499Z,38.40
2022-10-16T12:34:41.483Z,38.40
2022-10-16T12:37:23.270Z,37.87
2022-10-16T12:39:51.476Z,39.23
2022-10-16T12:42:27.821Z,39.37
2022-10-16T12:44:56.830Z,39.17
2022-10-16T12:47:31.379Z,37.70
2022-10-16T12:49:59.365Z,35.50
2022-10-16T12:52:35.222Z,37.03
2022-10-16T12:55:07.440Z,36.40
2022-10-16T12:58:11.994Z,34.60
2022-10-16T13:00:48.831Z,34.93
2022-10-16T13:03:53.643Z,36.33
2022-10-16T13:06:52.230Z,36.13
2022-10-16T13:09:38.516Z,37.87
2022-10-16T13:12:08.305Z,35.20
2022-10-16T13:14:53.453Z,32.97
2022-10-16T13:17:29.097Z,35.03
2022-10-16T13:20:30.286Z,36.50
2022-10-16T13:23:23.586Z,34.73
2022-10-16T13:25:56.719Z,33.77
2022-10-16T13:28:30.650Z,34.50
2022-10-16T13:31:00.407Z,39.17
2022-10-16T13:33:36.321Z,36.13
2022-10-16T13:36:04.823Z,34.20
2022-10-16T13:38:37.160Z,37.67
2022-10-16T13:41:07.105Z,35.00
2022-10-16T13:43:38.287Z,33.87
2022-10-16T13:46:17.481Z,40.40
2022-10-16T13:48:45.110Z,36.30
2022-10-16T13:51:18.026Z,35.10
2022-10-16T13:53:46.614Z,36.90
2022-10-16T13:56:19.163Z,36.07
2022-10-16T13:58:46.840Z,36.23
2022-10-16T14:01:32.478Z,39.27
2022-10-16T14:04:09.269Z,36.50
2022-10-16T14:06:37.991Z,31.40
2022-10-16T14:09:31.997Z,34.40
2022-10-16T14:12:09.597Z,33.93
2022-10-16T14:14:43.872Z,38.53
2022-10-16T14:17:28.147Z,38.60
2022-10-16T14:20:00.923Z,36.47
2022-10-16T14:22:41.876Z,36.30
2022-10-16T14:25:21.212Z,34.47
2022-10-16T14:30:31.147Z,33.90
2022-10-16T14:33:07.044Z,36.00
2022-10-16T14:35:37.862Z,33.60
2022-10-16T14:38:06.502Z,35.07
2022-10-16T14:40:36.834Z,34.80
2022-10-16T14:43:05.665Z,36.17
2022-10-16T14:45:35.799Z,38.20
2022-10-16T14:48:19.857Z,33.93
2022-10-16T14:50:47.273Z,32.07
2022-10-16T14:53:15.545Z,36.60
2022-10-16T14:55:43.401Z,32.97
2022-10-16T14:58:17.599Z,31.80
2022-10-16T15:00:44.631Z,31.50
2022-10-16T15:03:11.762Z,31.10
2022-10-16T15:05:38.751Z,31.60
2022-10-16T15:08:05.818Z,31.10
2022-10-16T15:10:38.492Z,30.30
2022-10-16T15:13:05.438Z,31.30
2022-10-16T15:15:32.486Z,32.83
2022-10-16T15:18:01.844Z,30.47
2022-10-16T15:20:31.699Z,29.63
2022-10-16T15:22:59.074Z,37.93
2022-10-16T15:25:48.305Z,32.33
2022-10-16T15:28:16.684Z,28.97
2022-10-16T15:30:46.273Z,27.33
2022-10-16T15:33:18.236Z,30.73
2022-10-16T15:35:49.490Z,30.53
2022-10-16T15:38:19.267Z,29.60
2022-10-16T15:40:48.075Z,29.37
2022-10-16T15:43:15.127Z,39.37
2022-10-16T15:45:42.567Z,31.30
2022-10-16T15:48:15.009Z,26.70
2022-10-16T15:50:42.129Z,30.63
2022-10-16T15:53:09.988Z,27.57
2022-10-16T15:55:39.000Z,29.53
2022-10-16T15:58:06.614Z,31.17
2022-10-16T16:00:34.167Z,30.10
2022-10-16T16:03:01.464Z,30.37
2022-10-16T16:05:28.820Z,29.97
2022-10-16T16:07:55.799Z,32.20
2022-10-16T16:10:22.823Z,31.47
2022-10-16T16:12:53.381Z,34.77
2022-10-16T16:15:22.908Z,26.87
2022-10-16T16:17:50.671Z,26.10
2022-10-16T16:20:17.843Z,28.93
2022-10-16T16:22:44.928Z,28.63
2022-10-16T16:25:12.140Z,28.73
2022-10-16T16:27:39.747Z,29.27
2022-10-16T16:30:08.442Z,30.17
2022-10-16T16:32:35.962Z,31.30
2022-10-16T16:35:06.176Z,37.43
2022-10-16T16:37:33.503Z,30.50
2022-10-16T16:40:00.647Z,28.40
2022-10-16T16:42:28.507Z,28.83
2022-10-16T16:44:55.906Z,33.27
2022-10-16T16:47:23.110Z,29.07
2022-10-16T16:49:50.376Z,30.17
2022-10-16T16:52:18.111Z,31.10
2022-10-16T16:54:53.011Z,30.87
2022-10-16T16:57:21.636Z,31.53
2022-10-16T16:59:51.644Z,35.97
2022-10-16T17:02:19.432Z,31.57
2022-10-16T17:04:47.202Z,33.63
2022-10-16T17:07:14.635Z,29.43
2022-10-16T17:09:41.996Z,31.27
2022-10-16T17:12:12.799Z,36.90
2022-10-16T17:14:40.530Z,33.97
2022-10-16T17:17:09.839Z,39.17
2022-10-16T17:19:37.929Z,36.03
2022-10-16T17:22:05.751Z,31.80
2022-10-16T17:24:33.761Z,37.63
2022-10-16T17:27:03.157Z,30.83
2022-10-16T17:29:31.351Z,32.53
2022-10-16T17:32:00.825Z,32.00
2022-10-16T17:34:30.441Z,34.57
2022-10-16T17:36:58.558Z,32.43
2022-10-16T17:39:31.025Z,34.43
2022-10-16T17:41:59.031Z,30.90
2022-10-16T17:44:27.199Z,34.30
2022-10-16T17:46:55.882Z,36.20
2022-10-16T17:51:55.375Z,32.97
2022-10-16T17:54:32.428Z,36.03
2022-10-16T17:57:00.334Z,29.27
2022-10-16T17:59:28.970Z,28.07
2022-10-16T18:01:57.701Z,28.70
2022-10-16T18:04:25.596Z,31.03
2022-10-16T18:06:54.108Z,27.23
2022-10-16T18:09:22.016Z,29.27
2022-10-16T18:11:53.280Z,31.70
2022-10-16T18:14:22.145Z,30.07
2022-10-16T18:16:53.552Z,30.53
2022-10-16T18:19:22.150Z,33.70
2022-10-16T18:21:49.689Z,27.93
2022-10-16T18:24:19.703Z,28.63
2022-10-16T18:26:52.893Z,32.50
2022-10-16T18:29:20.367Z,27.17
2022-10-16T18:31:48.287Z,26.50
2022-10-16T18:34:16.130Z,28.00
2022-10-16T18:36:44.286Z,28.70
2022-10-16T18:39:13.116Z,34.33
2022-10-16T18:41:45.419Z,32.37
2022-10-16T18:44:13.979Z,27.60
2022-10-16T18:46:42.974Z,33.93
2022-10-16T18:49:11.111Z,33.70
2022-10-16T18:51:45.791Z,29.80
2022-10-16T18:54:14.308Z,34.93
2022-10-16T18:56:51.204Z,26.67
2022-10-16T18:59:20.617Z,29.07
2022-10-16T19:01:50.860Z,30.37
2022-10-16T19:04:20.524Z,31.10
2022-10-16T19:06:53.526Z,31.57
2022-10-16T19:09:24.349Z,32.43
2022-10-16T19:14:25.570Z,24.70
2022-10-16T19:16:53.556Z,29.77
2022-10-16T19:19:22.797Z,29.17
2022-10-16T19:21:56.855Z,22.87
2022-10-16T19:24:25.023Z,27.10
2022-10-16T19:26:52.672Z,27.53
2022-10-16T19:29:21.106Z,30.20
2022-10-16T19:31:48.864Z,29.60
2022-10-16T19:34:16.576Z,26.93
2022-10-16T19:36:44.423Z,30.07
2022-10-16T19:39:17.454Z,31.27
2022-10-16T19:41:47.831Z,30.43
2022-10-16T19:44:17.724Z,35.00
2022-10-16T19:46:47.078Z,31.10
2022-10-16T19:49:18.658Z,33.67
2022-10-16T19:51:50.245Z,29.10
2022-10-16T19:54:17.755Z,28.90
2022-10-16T19:56:45.515Z,31.43
2022-10-16T19:59:13.584Z,29.93
2022-10-16T20:01:40.966Z,28.93
2022-10-16T20:04:08.001Z,31.40
2022-10-16T20:06:35.238Z,30.63
2022-10-16T20:09:02.885Z,33.27
2022-10-16T20:11:32.827Z,30.90
2022-10-16T20:14:01.240Z,30.35
2022-10-16T20:16:30.610Z,36.65
2022-10-16T20:18:59.326Z,27.53
2022-10-16T20:21:32.659Z,31.40
2022-10-16T20:24:06.831Z,31.83
2022-10-16T20:26:34.464Z,34.20
2022-10-16T20:29:02.657Z,33.07
2022-10-16T20:31:31.453Z,34.70
2022-10-16T20:34:02.128Z,33.80
2022-10-16T20:36:30.951Z,31.00
2022-10-16T20:38:57.961Z,32.57
2022-10-16T20:41:25.795Z,29.80
2022-10-16T20:43:53.973Z,33.53
2022-10-16T20:46:23.722Z,35.33
2022-10-16T20:48:52.278Z,30.47
2022-10-16T20:51:23.197Z,33.05
2022-10-16T20:53:55.690Z,34.05
2022-10-16T20:56:24.115Z,35.77
2022-10-16T20:58:51.301Z,35.40
2022-10-16T21:01:21.682Z,34.83
2022-10-16T21:03:54.442Z,35.38
2022-10-16T21:06:22.116Z,36.95
2022-10-16T21:08:50.416Z,33.53
2022-10-16T21:11:20.837Z,35.67
2022-10-16T21:13:48.319Z,33.55
2022-10-16T21:16:16.206Z,31.83
2022-10-16T21:18:44.914Z,33.25
2022-10-16T21:21:20.752Z,32.80
2022-10-16T21:23:51.840Z,31.90
2022-10-16T21:26:23.570Z,36.92
2022-10-16T21:28:50.581Z,34.55
2022-10-16T21:31:19.706Z,40.38
2022-10-16T21:33:47.741Z,35.25
2022-10-16T21:36:15.828Z,33.38
2022-10-16T21:38:43.592Z,38.25
2022-10-16T21:41:27.501Z,36.03
2022-10-16T21:43:55.776Z,34.38
2022-10-16T21:46:24.892Z,34.85
2022-10-16T21:48:56.721Z,36.85
2022-10-16T21:51:33.920Z,35.10
2022-10-16T21:54:06.775Z,31.30
2022-10-16T21:56:34.710Z,32.20
2022-10-16T21:59:01.947Z,36.88
2022-10-16T22:01:31.024Z,38.08
2022-10-16T22:03:58.453Z,40.13
2022-10-16T22:06:27.772Z,36.13
2022-10-16T22:09:00.063Z,39.63
2022-10-16T22:11:37.141Z,37.38
2022-10-16T22:14:07.215Z,32.80
2022-10-16T22:16:35.442Z,34.75
2022-10-16T22:19:03.761Z,36.88
2022-10-16T22:21:32.669Z,35.33
2022-10-16T22:24:00.677Z,32.10
2022-10-16T22:26:27.774Z,34.13
2022-10-16T22:28:55.999Z,36.58
2022-10-16T22:31:23.990Z,33.47
2022-10-16T22:33:56.017Z,40.63
2022-10-16T22:36:24.086Z,39.03
2022-10-16T22:38:51.154Z,32.33
2022-10-16T22:41:18.265Z,34.83
2022-10-16T22:43:48.409Z,38.88
2022-10-16T22:46:23.231Z,37.20
2022-10-16T22:48:50.965Z,42.13
2022-10-16T22:51:19.269Z,35.22
2022-10-16T22:53:48.226Z,39.25
2022-10-16T22:56:17.646Z,34.90
2022-10-16T22:58:45.155Z,35.85
2022-10-16T23:01:18.456Z,35.50
2022-10-16T23:03:45.384Z,34.63
2022-10-16T23:06:12.730Z,42.00
2022-10-16T23:08:39.721Z,39.15
2022-10-16T23:11:14.608Z,37.45
2022-10-16T23:13:45.806Z,41.38
2022-10-16T23:16:16.064Z,38.20
2022-10-16T23:18:44.802Z,37.10
2022-10-16T23:21:14.943Z,40.47
2022-10-16T23:23:43.051Z,38.35
2022-10-16T23:26:18.754Z,39.47
2022-10-16T23:28:45.885Z,33.33
2022-10-16T23:31:15.277Z,40.40
2022-10-16T23:33:42.531Z,39.67
2022-10-16T23:36:11.854Z,32.83
2022-10-16T23:38:39.284Z,33.97
2022-10-16T23:41:06.678Z,33.55
2022-10-16T23:43:33.744Z,34.17
2022-10-16T23:46:01.302Z,30.15
2022-10-16T23:48:28.477Z,30.85
2022-10-16T23:50:55.506Z,32.85
2022-10-16T23:53:22.914Z,39.00
2022-10-16T23:55:49.896Z,30.50
2022-10-16T23:58:17.638Z,33.40
